Time;durP1;ratioP1;P1;durP2;ratioP2;P2;SDS_P1;SDS_P2;PMS_P1;PMS_P2;Temp;Humidity;BMP_temperature;BMP_pressure;BME280_temperature;BME280_humidity;BME280_pressure;Samples;Min_cycle;Max_cycle;Signal;HPM_P1;HPM_P2
2022/11/04 00:01:15;;;;;;;11.30;8.38;;;;;;;;;;6243212;22;19995;-86
2022/11/04 00:03:41;;;;;;;12.40;8.43;;;;;;;;;;6244575;22;20081;-85
2022/11/04 00:06:07;;;;;;;12.50;8.00;;;;;;;;;;6268201;22;20006;-85
2022/11/04 00:08:33;;;;;;;11.02;8.40;;;;;;;;;;6268477;22;20016;-86
2022/11/04 00:13:43;;;;;;;11.60;8.25;;;;;;;;;;6295447;22;19995;-84
2022/11/04 00:18:53;;;;;;;10.55;8.18;;;;;;;;;;6271870;22;20079;-86
2022/11/04 00:29:31;;;;;;;11.90;7.90;;;;;;;;;;6266094;22;20011;-84
2022/11/04 00:34:41;;;;;;;10.68;7.93;;;;;;;;;;6265024;22;20012;-83
2022/11/04 00:37:06;;;;;;;13.98;8.32;;;;;;;;;;6261412;22;20002;-84
2022/11/04 00:39:32;;;;;;;9.40;7.38;;;;;;;;;;6263029;22;20012;-85
2022/11/04 00:41:58;;;;;;;10.70;7.63;;;;;;;;;;6264853;22;20002;-84
2022/11/04 00:44:23;;;;;;;11.02;8.05;;;;;;;;;;6262211;22;20023;-84
2022/11/04 00:46:49;;;;;;;10.55;7.80;;;;;;;;;;6261312;22;20000;-84
2022/11/04 00:49:14;;;;;;;10.75;7.90;;;;;;;;;;6234989;22;20023;-84
2022/11/04 00:51:40;;;;;;;10.60;6.68;;;;;;;;;;6263194;22;20007;-86
2022/11/04 00:54:06;;;;;;;9.57;7.18;;;;;;;;;;6239957;22;20463;-85
2022/11/04 00:56:31;;;;;;;8.05;6.32;;;;;;;;;;6239560;22;20015;-84
2022/11/04 00:59:00;;;;;;;9.98;6.85;;;;;;;;;;6240361;22;20008;-85
2022/11/04 01:01:25;;;;;;;8.98;7.10;;;;;;;;;;6239052;22;20002;-85
2022/11/04 01:03:51;;;;;;;9.10;7.00;;;;;;;;;;6264242;22;20008;-85
2022/11/04 01:06:17;;;;;;;9.50;7.18;;;;;;;;;;6262524;22;19996;-85
2022/11/04 01:08:43;;;;;;;9.70;7.13;;;;;;;;;;6288255;22;20012;-85
2022/11/04 01:11:08;;;;;;;8.93;6.93;;;;;;;;;;6262502;22;20030;-84
2022/11/04 01:13:34;;;;;;;10.07;6.80;;;;;;;;;;6264052;22;20008;-85
2022/11/04 01:16:00;;;;;;;10.05;7.20;;;;;;;;;;6239322;22;20428;-83
2022/11/04 01:18:25;;;;;;;;;;;;;;;;;;6239325;22;20010;-84
2022/11/04 01:20:51;;;;;;;9.15;7.28;;;;;;;;;;6264499;22;19903;-84
2022/11/04 01:23:16;;;;;;;9.52;7.15;;;;;;;;;;6238349;22;20008;-83
2022/11/04 01:25:42;;;;;;;8.50;6.60;;;;;;;;;;6263833;22;20006;-84
2022/11/04 01:28:08;;;;;;;10.10;7.40;;;;;;;;;;6239231;22;20454;-85
2022/11/04 01:30:33;;;;;;;10.57;6.57;;;;;;;;;;6263458;22;19999;-84
2022/11/04 01:32:59;;;;;;;7.93;6.45;;;;;;;;;;6264218;22;20022;-83
2022/11/04 01:35:24;;;;;;;12.30;6.78;;;;;;;;;;6262774;22;20519;-85
2022/11/04 01:37:50;;;;;;;9.25;7.03;;;;;;;;;;6288886;22;20007;-84
2022/11/04 01:40:15;;;;;;;8.02;6.18;;;;;;;;;;6237382;22;20000;-85
2022/11/04 01:42:41;;;;;;;7.38;5.88;;;;;;;;;;6289309;22;20319;-84
2022/11/04 01:45:13;;;;;;;8.38;6.40;;;;;;;;;;6238973;22;20008;-85
2022/11/04 01:47:39;;;;;;;8.40;6.80;;;;;;;;;;6238234;22;20023;-85
2022/11/04 01:50:16;;;;;;;8.73;6.32;;;;;;;;;;6238563;22;20012;-84
2022/11/04 01:52:47;;;;;;;8.52;6.80;;;;;;;;;;6264073;22;20015;-85
2022/11/04 01:55:14;;;;;;;8.30;6.22;;;;;;;;;;6239377;22;20075;-84
2022/11/04 01:57:40;;;;;;;9.40;6.43;;;;;;;;;;6239074;22;20007;-86
2022/11/04 02:00:06;;;;;;;11.77;7.40;;;;;;;;;;6238746;22;20015;-85
2022/11/04 02:02:39;;;;;;;9.73;7.03;;;;;;;;;;6265779;22;19999;-85
2022/11/04 02:05:05;;;;;;;14.27;10.27;;;;;;;;;;6238338;22;20046;-84
2022/11/04 02:07:30;;;;;;;9.43;7.22;;;;;;;;;;6238095;22;20003;-84
2022/11/04 02:09:56;;;;;;;9.30;6.70;;;;;;;;;;6237727;22;20014;-84
2022/11/04 02:15:06;;;;;;;10.07;7.10;;;;;;;;;;6286494;22;20016;-84
2022/11/04 02:17:31;;;;;;;8.18;6.60;;;;;;;;;;6235205;22;20006;-84
2022/11/04 02:20:00;;;;;;;8.98;6.75;;;;;;;;;;6259363;22;20461;-83
2022/11/04 02:22:28;;;;;;;9.35;7.03;;;;;;;;;;6286173;22;20021;-84
2022/11/04 02:25:00;;;;;;;9.85;7.20;;;;;;;;;;6261048;22;20038;-84
2022/11/04 02:27:38;;;;;;;8.75;7.35;;;;;;;;;;6285287;22;20070;-83
2022/11/04 02:30:04;;;;;;;10.57;7.55;;;;;;;;;;6286353;22;20015;-84
2022/11/04 02:32:38;;;;;;;9.88;7.70;;;;;;;;;;6260894;22;19999;-83
2022/11/04 02:35:07;;;;;;;11.57;7.80;;;;;;;;;;6287878;22;20011;-83
2022/11/04 02:37:35;;;;;;;10.80;7.32;;;;;;;;;;6262276;22;20003;-83
2022/11/04 02:40:06;;;;;;;10.10;7.78;;;;;;;;;;6235811;22;20018;-83
2022/11/04 02:42:32;;;;;;;10.50;8.10;;;;;;;;;;6288564;22;20008;-85
2022/11/04 02:45:00;;;;;;;8.82;7.30;;;;;;;;;;6263038;22;20000;-83
2022/11/04 02:47:27;;;;;;;10.63;7.68;;;;;;;;;;6261227;22;20085;-84
2022/11/04 02:50:05;;;;;;;10.25;7.68;;;;;;;;;;6236922;22;20016;-84
2022/11/04 02:52:30;;;;;;;11.15;7.65;;;;;;;;;;6236090;22;20016;-85
2022/11/04 02:54:59;;;;;;;13.77;7.40;;;;;;;;;;6296431;22;20022;-84
2022/11/04 02:57:29;;;;;;;9.75;7.10;;;;;;;;;;6266025;22;20120;-84
2022/11/04 02:59:54;;;;;;;15.40;10.88;;;;;;;;;;6292066;22;20420;-85
2022/11/04 03:02:25;;;;;;;9.98;7.43;;;;;;;;;;6267570;22;20037;-84
2022/11/04 03:04:51;;;;;;;9.65;7.15;;;;;;;;;;6241203;22;20016;-84
2022/11/04 03:07:17;;;;;;;8.82;6.50;;;;;;;;;;6243575;22;20065;-84
2022/11/04 03:09:45;;;;;;;10.65;6.88;;;;;;;;;;6245079;22;20018;-84
2022/11/04 03:12:13;;;;;;;10.60;7.45;;;;;;;;;;6243095;22;20056;-85
2022/11/04 03:14:44;;;;;;;8.18;5.97;;;;;;;;;;6265971;22;20019;-83
2022/11/04 03:17:13;;;;;;;9.93;6.70;;;;;;;;;;6289723;22;20003;-84
2022/11/04 03:19:59;;;;;;;10.05;7.13;;;;;;;;;;6266251;22;19995;-83
2022/11/04 03:22:29;;;;;;;9.07;6.22;;;;;;;;;;6318867;22;20010;-83
2022/11/04 03:24:54;;;;;;;9.80;6.93;;;;;;;;;;6240323;22;20018;-83
2022/11/04 03:27:23;;;;;;;10.70;6.53;;;;;;;;;;6240020;22;20011;-83
2022/11/04 03:29:52;;;;;;;9.80;6.97;;;;;;;;;;6293377;22;20025;-84
2022/11/04 03:32:21;;;;;;;8.18;6.28;;;;;;;;;;6293693;22;20037;-84
2022/11/04 03:34:46;;;;;;;9.18;6.55;;;;;;;;;;6242234;22;20451;-83
2022/11/04 03:37:12;;;;;;;8.70;7.03;;;;;;;;;;6240154;22;20095;-84
2022/11/04 03:39:38;;;;;;;10.73;7.47;;;;;;;;;;6240834;22;19999;-84
2022/11/04 03:42:18;;;;;;;12.00;8.05;;;;;;;;;;6242934;22;20354;-85
2022/11/04 03:44:46;;;;;;;9.95;7.68;;;;;;;;;;6274504;22;20358;-85
2022/11/04 03:47:13;;;;;;;9.55;7.68;;;;;;;;;;6297294;22;19999;-85
2022/11/04 03:49:38;;;;;;;11.88;7.05;;;;;;;;;;6244700;22;20022;-84
2022/11/04 03:52:04;;;;;;;10.65;7.93;;;;;;;;;;6244935;22;20003;-84
2022/11/04 03:54:34;;;;;;;11.68;7.22;;;;;;;;;;6244219;22;20011;-85
2022/11/04 03:57:00;;;;;;;10.73;7.07;;;;;;;;;;6270791;22;20037;-85
2022/11/04 03:59:28;;;;;;;10.88;7.90;;;;;;;;;;6294604;22;19995;-84
2022/11/04 04:01:59;;;;;;;11.13;8.00;;;;;;;;;;6295633;22;20007;-86
2022/11/04 04:04:28;;;;;;;11.02;7.85;;;;;;;;;;6271324;22;20135;-84
2022/11/04 04:06:56;;;;;;;10.80;7.93;;;;;;;;;;6294857;22;20003;-85
2022/11/04 04:09:22;;;;;;;9.60;7.45;;;;;;;;;;6241546;22;20026;-82
2022/11/04 04:11:52;;;;;;;10.13;7.60;;;;;;;;;;6293276;22;19999;-83
2022/11/04 04:14:38;;;;;;;11.23;8.25;;;;;;;;;;6242551;22;20038;-85
2022/11/04 04:17:15;;;;;;;12.40;7.80;;;;;;;;;;6291660;22;20037;-86
2022/11/04 04:19:42;;;;;;;10.05;7.57;;;;;;;;;;6294018;22;20007;-84
2022/11/04 04:22:14;;;;;;;10.15;7.50;;;;;;;;;;6242320;22;20335;-86
2022/11/04 04:27:30;;;;;;;10.15;7.93;;;;;;;;;;6271729;22;20094;-83
2022/11/04 04:30:06;;;;;;;12.75;7.97;;;;;;;;;;6242721;22;20011;-84
2022/11/04 04:32:37;;;;;;;11.18;7.82;;;;;;;;;;6245145;22;20022;-85
2022/11/04 04:37:47;;;;;;;9.93;7.80;;;;;;;;;;6276944;22;20007;-84
2022/11/04 04:45:42;;;;;;;11.05;8.13;;;;;;;;;;6278390;22;20062;-85
2022/11/04 04:48:08;;;;;;;11.55;8.05;;;;;;;;;;6300177;22;19995;-85
2022/11/04 04:50:38;;;;;;;13.73;8.15;;;;;;;;;;6271571;22;20019;-85
2022/11/04 04:53:04;;;;;;;11.82;7.78;;;;;;;;;;6247237;22;20007;-86
2022/11/04 04:55:33;;;;;;;10.23;7.57;;;;;;;;;;6240928;22;20026;-85
2022/11/04 04:57:58;;;;;;;12.30;8.45;;;;;;;;;;6246404;22;20008;-84
2022/11/04 05:00:24;;;;;;;12.38;8.82;;;;;;;;;;6245827;22;20051;-85
2022/11/04 05:02:51;;;;;;;11.50;8.55;;;;;;;;;;6226020;22;19975;-86
2022/11/04 05:05:18;;;;;;;12.30;8.05;;;;;;;;;;6247873;22;20066;-87
2022/11/04 05:07:44;;;;;;;10.80;8.38;;;;;;;;;;6223384;22;19999;-85
2022/11/04 05:10:13;;;;;;;10.95;8.02;;;;;;;;;;6274540;22;20076;-85
2022/11/04 05:15:24;;;;;;;11.15;8.25;;;;;;;;;;6251934;22;20329;-86
2022/11/04 05:17:56;;;;;;;10.00;8.13;;;;;;;;;;6275374;22;19995;-87
2022/11/04 05:20:42;;;;;;;10.88;8.55;;;;;;;;;;6249692;22;20037;-85
2022/11/04 05:23:10;;;;;;;13.10;8.87;;;;;;;;;;6276493;22;20027;-86
2022/11/04 05:25:38;;;;;;;12.18;9.45;;;;;;;;;;6273226;22;20335;-84
2022/11/04 05:28:04;;;;;;;11.57;8.35;;;;;;;;;;6239201;22;20070;-86
2022/11/04 05:30:29;;;;;;;12.38;8.38;;;;;;;;;;6268034;22;20007;-85
2022/11/04 05:32:55;;;;;;;11.63;8.63;;;;;;;;;;6241971;22;20007;-84
2022/11/04 05:35:21;;;;;;;12.70;9.15;;;;;;;;;;6218719;22;20003;-84
2022/11/04 05:37:47;;;;;;;15.48;9.63;;;;;;;;;;6241609;22;20012;-85
2022/11/04 05:40:12;;;;;;;12.27;9.23;;;;;;;;;;6211098;22;20004;-85
2022/11/04 05:42:38;;;;;;;17.85;10.20;;;;;;;;;;6239609;22;20008;-84
2022/11/04 05:45:03;;;;;;;13.65;9.85;;;;;;;;;;6206654;22;20004;-83
2022/11/04 05:47:29;;;;;;;20.80;10.55;;;;;;;;;;6229545;22;20087;-82
2022/11/04 05:49:54;;;;;;;15.43;10.32;;;;;;;;;;6256864;22;20004;-82
2022/11/04 05:52:20;;;;;;;14.10;8.93;;;;;;;;;;6233071;22;20019;-85
2022/11/04 05:54:46;;;;;;;11.75;8.68;;;;;;;;;;6212825;22;20015;-81
2022/11/04 05:57:12;;;;;;;12.27;8.35;;;;;;;;;;6243522;22;20390;-84
2022/11/04 05:59:37;;;;;;;14.48;8.70;;;;;;;;;;6242654;22;20013;-84
2022/11/04 06:02:03;;;;;;;11.93;8.38;;;;;;;;;;6242027;22;20019;-84
2022/11/04 06:04:30;;;;;;;13.13;8.85;;;;;;;;;;6267681;22;20009;-85
2022/11/04 06:06:56;;;;;;;12.50;8.50;;;;;;;;;;6293278;22;20015;-83
2022/11/04 06:09:37;;;;;;;13.18;8.93;;;;;;;;;;6238909;22;20010;-82
2022/11/04 06:12:26;;;;;;;12.85;8.90;;;;;;;;;;6244340;22;20074;-82
2022/11/04 06:14:52;;;;;;;11.00;8.55;;;;;;;;;;6263517;22;20019;-83
2022/11/04 06:17:18;;;;;;;12.40;8.50;;;;;;;;;;6268474;22;20055;-83
2022/11/04 06:19:44;;;;;;;11.35;8.50;;;;;;;;;;6268527;22;20011;-86
2022/11/04 06:22:13;;;;;;;13.13;9.13;;;;;;;;;;6267729;22;20477;-82
2022/11/04 06:24:38;;;;;;;12.55;9.55;;;;;;;;;;6241840;22;20095;-84
2022/11/04 06:27:04;;;;;;;13.77;9.05;;;;;;;;;;6290971;22;20003;-83
2022/11/04 06:29:29;;;;;;;12.73;9.07;;;;;;;;;;6266032;22;20336;-85
2022/11/04 06:31:55;;;;;;;11.57;8.70;;;;;;;;;;6240536;22;19999;-82
2022/11/04 06:34:20;;;;;;;10.60;7.95;;;;;;;;;;6289661;22;20011;-83
2022/11/04 06:36:47;;;;;;;12.57;8.60;;;;;;;;;;6291000;22;19999;-83
2022/11/04 06:39:13;;;;;;;11.07;8.60;;;;;;;;;;6260128;22;20012;-83
2022/11/04 06:41:39;;;;;;;12.43;8.93;;;;;;;;;;6257284;22;20006;-80
2022/11/04 06:44:04;;;;;;;13.10;9.18;;;;;;;;;;6283236;22;20011;-81
2022/11/04 06:46:30;;;;;;;14.45;10.02;;;;;;;;;;6261936;22;20006;-82
2022/11/04 06:48:56;;;;;;;14.23;10.55;;;;;;;;;;6290583;22;20003;-82
2022/11/04 06:51:21;;;;;;;13.93;9.68;;;;;;;;;;6263602;22;20023;-82
2022/11/04 06:53:47;;;;;;;13.90;10.55;;;;;;;;;;6241195;22;20103;-82
2022/11/04 06:56:13;;;;;;;15.32;10.65;;;;;;;;;;6265353;22;20011;-85
2022/11/04 06:58:38;;;;;;;13.18;9.80;;;;;;;;;;6262180;22;20007;-81
2022/11/04 07:01:04;;;;;;;19.10;11.00;;;;;;;;;;6287216;22;20001;-81
2022/11/04 07:03:29;;;;;;;16.10;10.88;;;;;;;;;;6262603;22;20014;-81
2022/11/04 07:05:55;;;;;;;18.00;12.05;;;;;;;;;;6261514;22;20006;-81
2022/11/04 07:08:20;;;;;;;20.50;14.63;;;;;;;;;;6259594;22;20497;-80
2022/11/04 07:10:46;;;;;;;20.20;14.43;;;;;;;;;;6261047;22;20062;-82
2022/11/04 07:13:11;;;;;;;18.77;14.40;;;;;;;;;;6286133;22;20019;-81
2022/11/04 07:15:40;;;;;;;20.50;15.23;;;;;;;;;;6283381;22;20007;-80
2022/11/04 07:18:06;;;;;;;18.77;14.05;;;;;;;;;;6311708;22;20007;-80
2022/11/04 07:20:32;;;;;;;19.52;14.70;;;;;;;;;;6258178;22;19995;-78
2022/11/04 07:22:58;;;;;;;17.23;13.88;;;;;;;;;;6256945;22;20018;-81
2022/11/04 07:25:23;;;;;;;17.98;14.18;;;;;;;;;;6308611;22;20426;-80
2022/11/04 07:27:49;;;;;;;16.55;14.45;;;;;;;;;;6281721;22;20515;-80
2022/11/04 07:30:14;;;;;;;19.77;14.77;;;;;;;;;;6283868;22;20007;-81
2022/11/04 07:32:40;;;;;;;21.10;16.15;;;;;;;;;;6259130;22;20065;-79
2022/11/04 07:35:06;;;;;;;20.70;15.23;;;;;;;;;;6257685;22;20007;-79
2022/11/04 07:37:31;;;;;;;24.88;13.55;;;;;;;;;;6258055;22;20438;-80
2022/11/04 07:39:57;;;;;;;18.45;13.32;;;;;;;;;;6257476;22;19999;-80
2022/11/04 07:42:22;;;;;;;15.82;13.52;;;;;;;;;;6285708;22;20008;-81
2022/11/04 07:44:53;;;;;;;17.75;14.15;;;;;;;;;;6285527;22;20010;-80
2022/11/04 07:47:18;;;;;;;18.20;13.70;;;;;;;;;;6257440;22;20015;-78
2022/11/04 07:49:44;;;;;;;17.98;14.27;;;;;;;;;;6256918;22;20003;-79
2022/11/04 07:52:09;;;;;;;20.30;14.57;;;;;;;;;;6284394;22;20342;-80
2022/11/04 07:54:35;;;;;;;19.23;14.23;;;;;;;;;;6285729;22;20007;-80
2022/11/04 07:57:00;;;;;;;23.17;16.17;;;;;;;;;;6259611;22;20481;-80
2022/11/04 07:59:26;;;;;;;17.52;13.63;;;;;;;;;;6286548;22;20320;-81
2022/11/04 08:01:52;;;;;;;18.70;14.05;;;;;;;;;;6260223;22;20008;-81
2022/11/04 08:04:18;;;;;;;18.58;13.90;;;;;;;;;;6261005;22;20002;-79
2022/11/04 08:06:44;;;;;;;22.92;14.98;;;;;;;;;;6261422;22;20011;-81
2022/11/04 08:09:11;;;;;;;21.02;15.50;;;;;;;;;;6261363;22;19999;-80
2022/11/04 08:11:36;;;;;;;19.20;14.07;;;;;;;;;;6258074;22;20053;-81
2022/11/04 08:14:02;;;;;;;;;;;;;;;;;;6286592;22;20423;-81
2022/11/04 08:16:27;;;;;;;19.52;15.20;;;;;;;;;;6259719;22;20281;-84
2022/11/04 08:18:53;;;;;;;20.83;15.85;;;;;;;;;;6259254;22;20003;-81
2022/11/04 08:21:19;;;;;;;22.48;15.90;;;;;;;;;;6259278;22;20007;-81
2022/11/04 08:23:46;;;;;;;21.58;16.23;;;;;;;;;;6259653;22;20070;-81
2022/11/04 08:26:14;;;;;;;21.02;17.08;;;;;;;;;;6261653;22;20011;-80
2022/11/04 08:28:39;;;;;;;25.60;18.85;;;;;;;;;;6260108;22;19999;-80
2022/11/04 08:31:09;;;;;;;24.17;17.33;;;;;;;;;;6259326;22;20011;-81
2022/11/04 08:33:35;;;;;;;22.25;17.50;;;;;;;;;;6235747;22;20350;-80
2022/11/04 08:36:02;;;;;;;25.63;18.63;;;;;;;;;;6258991;22;20094;-80
2022/11/04 08:38:28;;;;;;;21.83;16.50;;;;;;;;;;6286701;22;20003;-81
2022/11/04 08:40:57;;;;;;;22.60;16.88;;;;;;;;;;6258085;22;20324;-80
2022/11/04 08:43:23;;;;;;;27.90;17.50;;;;;;;;;;6263489;22;19995;-81
2022/11/04 08:45:48;;;;;;;23.42;17.50;;;;;;;;;;6264566;22;20560;-81
2022/11/04 08:48:15;;;;;;;28.30;19.10;;;;;;;;;;6237254;22;20330;-81
2022/11/04 08:50:41;;;;;;;26.35;18.98;;;;;;;;;;6262817;22;20038;-81
2022/11/04 08:53:06;;;;;;;29.45;19.63;;;;;;;;;;6262000;22;19999;-81
2022/11/04 08:55:32;;;;;;;26.40;19.77;;;;;;;;;;6259928;22;20447;-81
2022/11/04 08:57:58;;;;;;;32.15;21.33;;;;;;;;;;6259130;22;20009;-81
2022/11/04 09:00:23;;;;;;;24.17;18.98;;;;;;;;;;6261407;22;20011;-80
2022/11/04 09:02:49;;;;;;;32.20;19.02;;;;;;;;;;6258308;22;20002;-81
2022/11/04 09:05:15;;;;;;;26.35;18.63;;;;;;;;;;6259265;22;20015;-81
2022/11/04 09:07:41;;;;;;;28.77;18.80;;;;;;;;;;6287577;22;19999;-80
2022/11/04 09:10:08;;;;;;;25.33;18.77;;;;;;;;;;6233721;22;20131;-80
2022/11/04 09:12:33;;;;;;;25.63;19.27;;;;;;;;;;6282712;22;20014;-80
2022/11/04 09:14:59;;;;;;;27.08;19.55;;;;;;;;;;6257186;22;20019;-80
2022/11/04 09:17:24;;;;;;;24.40;19.30;;;;;;;;;;6310716;22;19995;-80
2022/11/04 09:19:50;;;;;;;24.98;18.45;;;;;;;;;;6257405;22;20027;-81
2022/11/04 09:22:15;;;;;;;24.90;17.30;;;;;;;;;;6259324;22;19995;-79
2022/11/04 09:24:41;;;;;;;20.83;17.25;;;;;;;;;;6313061;22;20045;-80
2022/11/04 09:27:06;;;;;;;23.55;17.08;;;;;;;;;;6258580;22;19999;-79
2022/11/04 09:29:32;;;;;;;23.10;16.65;;;;;;;;;;6283520;22;20026;-80
2022/11/04 09:31:58;;;;;;;26.30;17.77;;;;;;;;;;6283516;22;20010;-81
2022/11/04 09:34:24;;;;;;;;;;;;;;;;;;6259199;22;20011;-80
2022/11/04 09:36:49;;;;;;;27.38;19.15;;;;;;;;;;6282933;22;19909;-81
2022/11/04 09:39:15;;;;;;;26.23;18.08;;;;;;;;;;6261509;22;20011;-80
2022/11/04 09:42:00;;;;;;;24.00;17.70;;;;;;;;;;6233115;22;19996;-81
2022/11/04 09:44:46;;;;;;;24.98;18.08;;;;;;;;;;6289629;22;20017;-81
2022/11/04 09:47:12;;;;;;;25.88;18.33;;;;;;;;;;6285647;22;20014;-81
2022/11/04 09:49:38;;;;;;;23.92;17.33;;;;;;;;;;6286126;22;19999;-80
2022/11/04 09:52:06;;;;;;;32.97;18.63;;;;;;;;;;6259607;22;20362;-80
2022/11/04 09:54:34;;;;;;;26.73;18.52;;;;;;;;;;6232355;22;20381;-80
2022/11/04 09:57:00;;;;;;;28.17;20.05;;;;;;;;;;6257373;22;20007;-80
2022/11/04 09:59:25;;;;;;;;;;;;;;;;;;6259281;22;20453;-80
2022/11/04 10:01:57;;;;;;;30.25;19.33;;;;;;;;;;6284462;22;19907;-81
2022/11/04 10:04:41;;;;;;;28.48;19.23;;;;;;;;;;6310062;22;20015;-81
2022/11/04 10:07:14;;;;;;;27.25;19.88;;;;;;;;;;6283722;22;20018;-80
2022/11/04 10:09:49;;;;;;;28.90;20.05;;;;;;;;;;6283067;22;20003;-80
2022/11/04 10:12:20;;;;;;;28.75;20.60;;;;;;;;;;6257284;22;20320;-80
2022/11/04 10:14:46;;;;;;;31.40;18.83;;;;;;;;;;6232683;22;20019;-80
2022/11/04 10:17:11;;;;;;;27.17;20.38;;;;;;;;;;6258709;22;20193;-80
2022/11/04 10:19:40;;;;;;;30.33;21.02;;;;;;;;;;6258656;22;20022;-81
2022/11/04 10:22:14;;;;;;;30.83;21.95;;;;;;;;;;6282707;22;20320;-80
2022/11/04 10:24:46;;;;;;;30.30;21.33;;;;;;;;;;6311338;22;20015;-80
2022/11/04 10:27:18;;;;;;;32.97;19.92;;;;;;;;;;6259302;22;20402;-81
2022/11/04 10:29:44;;;;;;;32.47;20.98;;;;;;;;;;6236697;22;20015;-82
2022/11/04 10:32:30;;;;;;;32.33;21.55;;;;;;;;;;6285869;22;20339;-80
2022/11/04 10:34:58;;;;;;;30.92;21.40;;;;;;;;;;6259538;22;20015;-81
2022/11/04 10:37:24;;;;;;;28.98;21.13;;;;;;;;;;6286758;22;20019;-81
2022/11/04 10:40:00;;;;;;;32.65;22.55;;;;;;;;;;6234717;22;20020;-81
2022/11/04 10:42:26;;;;;;;32.90;22.02;;;;;;;;;;6284155;22;20011;-81
2022/11/04 10:44:52;;;;;;;30.40;21.30;;;;;;;;;;6283616;22;20010;-81
2022/11/04 10:47:20;;;;;;;37.38;25.48;;;;;;;;;;6260089;22;20022;-82
2022/11/04 10:49:58;;;;;;;31.75;21.20;;;;;;;;;;6234533;22;20003;-81
2022/11/04 10:52:24;;;;;;;30.50;21.02;;;;;;;;;;6312927;22;20402;-83
2022/11/04 10:54:49;;;;;;;33.50;21.60;;;;;;;;;;6281135;22;20012;-80
2022/11/04 10:57:19;;;;;;;32.92;21.83;;;;;;;;;;6252650;22;20023;-79
2022/11/04 10:59:46;;;;;;;33.85;22.00;;;;;;;;;;6254874;22;20062;-82
2022/11/04 11:02:11;;;;;;;29.73;20.30;;;;;;;;;;6253323;22;20008;-82
2022/11/04 11:04:37;;;;;;;28.73;21.13;;;;;;;;;;6277815;22;19999;-81
2022/11/04 11:07:04;;;;;;;27.70;19.88;;;;;;;;;;6278368;22;20440;-81
2022/11/04 11:09:31;;;;;;;37.00;22.92;;;;;;;;;;6277247;22;20087;-81
2022/11/04 11:12:00;;;;;;;29.52;21.02;;;;;;;;;;6253540;22;20091;-80
2022/11/04 11:14:29;;;;;;;36.97;21.73;;;;;;;;;;6277271;22;20012;-81
2022/11/04 11:16:55;;;;;;;28.70;21.23;;;;;;;;;;6280793;22;20083;-81
2022/11/04 11:19:21;;;;;;;27.17;20.45;;;;;;;;;;6254926;22;20003;-80
2022/11/04 11:21:47;;;;;;;;;;;;;;;;;;6252531;22;20347;-80
2022/11/04 11:24:15;;;;;;;32.95;20.73;;;;;;;;;;6276844;22;19931;-82
2022/11/04 11:26:47;;;;;;;32.38;20.75;;;;;;;;;;6254260;22;20099;-82
2022/11/04 11:29:12;;;;;;;30.60;22.67;;;;;;;;;;6254566;22;20042;-82
2022/11/04 11:31:38;;;;;;;30.38;22.67;;;;;;;;;;6278791;22;20335;-80
2022/11/04 11:34:13;;;;;;;31.08;22.48;;;;;;;;;;6253702;22;20008;-80
2022/11/04 11:36:40;;;;;;;30.65;23.05;;;;;;;;;;6279768;22;20386;-81
2022/11/04 11:39:13;;;;;;;30.75;22.00;;;;;;;;;;6253697;22;20078;-81
2022/11/04 11:41:49;;;;;;;30.98;23.15;;;;;;;;;;6254035;22;20041;-81
2022/11/04 11:44:31;;;;;;;35.53;22.75;;;;;;;;;;6229101;22;20033;-82
2022/11/04 11:47:04;;;;;;;32.67;22.70;;;;;;;;;;6229552;22;20497;-80
2022/11/04 11:49:31;;;;;;;34.65;24.25;;;;;;;;;;6255383;22;20418;-81
2022/11/04 11:52:15;;;;;;;37.00;24.95;;;;;;;;;;6256104;22;20023;-81
2022/11/04 11:54:42;;;;;;;39.15;25.83;;;;;;;;;;6259048;22;20016;-81
2022/11/04 11:57:11;;;;;;;32.83;24.08;;;;;;;;;;6286481;22;20447;-81
2022/11/04 11:59:41;;;;;;;35.53;24.52;;;;;;;;;;6260401;22;20347;-81
2022/11/04 12:02:13;;;;;;;36.47;24.13;;;;;;;;;;6285911;22;20072;-81
2022/11/04 12:04:40;;;;;;;37.90;25.13;;;;;;;;;;6259847;22;20011;-80
2022/11/04 12:07:17;;;;;;;41.67;25.35;;;;;;;;;;6261609;22;20010;-80
2022/11/04 12:09:52;;;;;;;37.75;24.23;;;;;;;;;;6286315;22;20045;-80
2022/11/04 12:12:37;;;;;;;38.55;26.55;;;;;;;;;;6235234;22;20011;-81
2022/11/04 12:15:03;;;;;;;39.83;25.38;;;;;;;;;;6234415;22;20019;-82
2022/11/04 12:17:31;;;;;;;37.17;24.52;;;;;;;;;;6259713;22;20438;-81
2022/11/04 12:20:14;;;;;;;39.58;25.02;;;;;;;;;;6259206;22;20450;-81
2022/11/04 12:23:00;;;;;;;39.53;24.75;;;;;;;;;;6311793;22;20007;-81
2022/11/04 12:26:00;;;;;;;36.72;23.73;;;;;;;;;;6259347;22;20011;-81
2022/11/04 12:28:28;;;;;;;33.05;21.52;;;;;;;;;;6237176;22;20442;-82
2022/11/04 12:31:02;;;;;;;35.47;22.23;;;;;;;;;;6285111;22;20339;-82
2022/11/04 12:33:32;;;;;;;35.00;23.42;;;;;;;;;;6259071;22;20045;-81
2022/11/04 12:36:16;;;;;;;34.90;21.95;;;;;;;;;;6260615;22;20659;-80
2022/11/04 12:38:46;;;;;;;35.00;21.35;;;;;;;;;;6285251;22;20399;-82
2022/11/04 12:41:11;;;;;;;31.48;21.60;;;;;;;;;;6260616;22;20011;-80
2022/11/04 12:43:40;;;;;;;33.40;21.65;;;;;;;;;;6284191;22;20335;-80
2022/11/04 12:46:12;;;;;;;31.65;21.17;;;;;;;;;;6283889;22;20003;-81
2022/11/04 12:48:50;;;;;;;31.35;21.10;;;;;;;;;;6285363;22;20015;-80
2022/11/04 12:51:22;;;;;;;29.92;20.33;;;;;;;;;;6311023;22;20011;-80
2022/11/04 12:53:54;;;;;;;35.72;21.15;;;;;;;;;;6257658;22;20011;-81
2022/11/04 12:56:21;;;;;;;31.27;20.27;;;;;;;;;;6284104;22;20007;-81
2022/11/04 12:58:52;;;;;;;35.50;21.50;;;;;;;;;;6233999;22;20007;-80
2022/11/04 13:01:22;;;;;;;30.58;21.35;;;;;;;;;;6259586;22;20346;-80
2022/11/04 13:03:55;;;;;;;33.28;19.98;;;;;;;;;;6258905;22;20446;-80
2022/11/04 13:06:26;;;;;;;31.10;20.65;;;;;;;;;;6258576;22;20011;-79
2022/11/04 13:08:57;;;;;;;39.08;21.40;;;;;;;;;;6232154;22;20007;-80
2022/11/04 13:11:37;;;;;;;30.52;20.85;;;;;;;;;;6260438;22;20068;-81
2022/11/04 13:14:14;;;;;;;33.50;20.88;;;;;;;;;;6259118;22;20049;-81
2022/11/04 13:16:41;;;;;;;35.08;21.17;;;;;;;;;;6259975;22;20015;-79
2022/11/04 13:19:09;;;;;;;33.72;21.27;;;;;;;;;;6259681;22;19996;-81
2022/11/04 13:21:35;;;;;;;34.25;21.70;;;;;;;;;;6260210;22;20007;-80
2022/11/04 13:24:03;;;;;;;36.20;22.27;;;;;;;;;;6233495;22;20387;-80
2022/11/04 13:26:28;;;;;;;36.00;21.58;;;;;;;;;;6232740;22;20018;-80
2022/11/04 13:28:58;;;;;;;34.80;23.27;;;;;;;;;;6258894;22;20003;-80
2022/11/04 13:31:40;;;;;;;35.83;22.15;;;;;;;;;;6257614;22;20049;-81
2022/11/04 13:34:18;;;;;;;33.22;21.23;;;;;;;;;;6258306;22;20018;-81
2022/11/04 13:36:49;;;;;;;36.75;22.63;;;;;;;;;;6258426;22;20007;-81
2022/11/04 13:39:17;;;;;;;36.35;23.80;;;;;;;;;;6284572;22;20041;-81
2022/11/04 13:41:45;;;;;;;39.45;22.42;;;;;;;;;;6233022;22;20003;-80
2022/11/04 13:44:30;;;;;;;39.03;23.85;;;;;;;;;;6288092;22;20353;-81
2022/11/04 13:46:57;;;;;;;40.42;23.40;;;;;;;;;;6282680;22;20007;-80
2022/11/04 13:49:31;;;;;;;33.55;21.83;;;;;;;;;;6259547;22;19999;-82
2022/11/04 13:52:00;;;;;;;36.78;22.02;;;;;;;;;;6259034;22;20060;-81
2022/11/04 13:54:52;;;;;;;34.97;21.88;;;;;;;;;;6281966;22;20033;-79
2022/11/04 13:57:22;;;;;;;33.65;21.25;;;;;;;;;;6255104;22;20003;-81
2022/11/04 14:00:07;;;;;;;41.17;23.30;;;;;;;;;;6235378;22;20443;-82
2022/11/04 14:02:37;;;;;;;39.90;22.83;;;;;;;;;;6285490;22;20348;-81
2022/11/04 14:05:21;;;;;;;38.90;21.85;;;;;;;;;;6233087;22;20041;-81
2022/11/04 14:08:02;;;;;;;39.88;20.83;;;;;;;;;;6257962;22;20095;-81
2022/11/04 14:10:43;;;;;;;36.33;21.20;;;;;;;;;;6310755;22;20007;-82
2022/11/04 14:13:25;;;;;;;42.05;22.92;;;;;;;;;;6312113;22;20015;-80
2022/11/04 14:16:03;;;;;;;41.92;23.10;;;;;;;;;;6286732;22;20026;-81
2022/11/04 14:18:33;;;;;;;40.45;22.00;;;;;;;;;;6258090;22;20098;-79
2022/11/04 14:21:04;;;;;;;39.75;23.30;;;;;;;;;;6233026;22;19995;-81
2022/11/04 14:23:29;;;;;;;39.17;23.45;;;;;;;;;;6259187;22;20017;-80
2022/11/04 14:26:02;;;;;;;42.88;24.95;;;;;;;;;;6259704;22;20026;-82
2022/11/04 14:28:28;;;;;;;41.90;23.92;;;;;;;;;;6257304;22;20072;-81
2022/11/04 14:30:54;;;;;;;46.47;24.70;;;;;;;;;;6312240;22;20010;-81
2022/11/04 14:33:39;;;;;;;42.88;23.65;;;;;;;;;;6259167;22;20358;-80
2022/11/04 14:36:20;;;;;;;46.13;24.25;;;;;;;;;;6283380;22;20423;-82
2022/11/04 14:38:52;;;;;;;43.65;23.48;;;;;;;;;;6259110;22;20383;-82
2022/11/04 14:41:21;;;;;;;44.03;24.08;;;;;;;;;;6317879;22;20011;-83
2022/11/04 14:43:46;;;;;;;42.30;23.92;;;;;;;;;;6297684;22;20038;-83
2022/11/04 14:46:22;;;;;;;42.50;23.45;;;;;;;;;;6270752;22;20038;-81
2022/11/04 14:48:51;;;;;;;40.97;21.45;;;;;;;;;;6235954;22;20007;-81
2022/11/04 14:51:22;;;;;;;40.38;22.50;;;;;;;;;;6260529;22;19999;-81
2022/11/04 14:53:47;;;;;;;35.63;19.75;;;;;;;;;;6258294;22;20315;-80
2022/11/04 14:56:13;;;;;;;33.92;19.90;;;;;;;;;;6258546;22;20011;-81
2022/11/04 14:58:38;;;;;;;33.83;19.52;;;;;;;;;;6284303;22;20433;-79
2022/11/04 15:01:04;;;;;;;39.10;20.58;;;;;;;;;;6260402;22;19996;-81
2022/11/04 15:03:34;;;;;;;34.67;19.67;;;;;;;;;;6262895;22;20029;-81
2022/11/04 15:06:02;;;;;;;38.85;19.92;;;;;;;;;;6259806;22;20439;-81
2022/11/04 15:08:33;;;;;;;32.72;19.38;;;;;;;;;;6259061;22;20144;-80